Flight Track Log - Related Links

Times and Time Zones

All times are in EST time to prevent confusion due to time zone crossing. See the N456KT flight status page for this flight to view local times or setup timezone preferences in your user account.


Time Position Orientation Groundspeed Altitude Reporting Facility
EST Latitude Longitude Course Direction KTS MPH feet Rate Location/Type
Mon 10:05:42 AM 40.9881 -85.1556 289° West 178 205 3,600  Level Chicago Center
Mon 10:06:44 AM 41.0047 -85.2183 289° West 235 270 7,600 4,500 Climbing Chicago Center
Mon 10:07:46 AM 40.9603 -85.3019 235° Southwest 272 313 12,900 4,839 Climbing Chicago Center
Mon 10:08:48 AM 40.9106 -85.3944 235° Southwest 304 350 17,600 3,677 Climbing Chicago Center
Mon 10:09:50 AM 40.8394 -85.5139 232° Southwest 352 405 20,500 2,613 Climbing Chicago Center
Mon 10:10:52 AM 40.7369 -85.5703 203° Southwest 397 457 23,000 2,177 Climbing Chicago Center
Mon 10:11:54 AM 40.6369 -85.6236 202° Southwest 403 464 25,000 2,226 Climbing Chicago Center
Mon 10:12:56 AM 40.5289 -85.6819 202° Southwest 417 480 27,600 2,419 Climbing Chicago Center
Mon 10:13:58 AM 40.4367 -85.7731 217° Southwest 417 480 30,000 2,516 Climbing Chicago Center
Mon 10:15:00 AM 40.3333 -85.8911 221° Southwest 413 475 32,800 1,686 Climbing Chicago Center
Mon 10:17:03 AM 40.2042 -86.1244 234° Southwest 420 483 35,200 1,032 Climbing Kansas City Center
Mon 10:18:06 AM 40.1319 -86.2600 235° Southwest 427 491 36,000 912 Climbing Chicago Center
Mon 10:19:08 AM 40.0644 -86.3892 236° Southwest 435 501 37,100 1,306 Climbing Chicago Center
Mon 10:20:10 AM 39.9858 -86.5392 236° Southwest 426 490 38,700 1,258 Climbing Chicago Center
Mon 10:21:12 AM 39.9200 -86.6642 236° Southwest 425 489 39,700 629 Climbing Chicago Center
Mon 10:22:14 AM 39.8542 -86.7897 236° Southwest 425 489 40,000 145 Climbing Chicago Center
Mon 10:23:16 AM 39.7856 -86.9200 236° Southwest 436 502 40,000  Level Chicago Center
Mon 10:24:18 AM 39.7039 -87.0728 235° Southwest 433 498 40,000  Level Chicago Center
Mon 10:25:20 AM 39.6378 -87.1972 235° Southwest 425 489 40,000  Level Chicago Center
Mon 10:26:22 AM 39.5706 -87.3228 235° Southwest 424 488 40,000  Level Chicago Center
Mon 10:27:23 AM 39.4969 -87.4556 234° Southwest 429 494 40,000  Level Kansas City Center
Mon 10:28:25 AM 39.4267 -87.5842 235° Southwest 435 501 40,000  Level Kansas City Center
Mon 10:29:26 AM 39.3556 -87.7153 235° Southwest 441 507 40,000  Level Kansas City Center
Mon 10:30:29 AM 39.2831 -87.8469 235° Southwest 446 513 40,000  Level Kansas City Center
Mon 10:31:30 AM 39.2111 -87.9772 235° Southwest 447 514 40,000  Level Kansas City Center
Mon 10:32:32 AM 39.1256 -88.1308 234° Southwest 443 510 40,000  Level Kansas City Center
Mon 10:33:35 AM 39.0556 -88.2572 235° Southwest 439 505 40,000  Level Kansas City Center
Mon 10:34:37 AM 38.9847 -88.3828 234° Southwest 436 502 40,000  Level Kansas City Center
Mon 10:35:40 AM 38.9147 -88.5092 235° Southwest 435 501 40,000  Level Kansas City Center
Mon 10:36:40 AM 38.8447 -88.6339 234° Southwest 433 498 40,000  Level Kansas City Center
Mon 10:37:43 AM 38.7739 -88.7600 234° Southwest 434 499 40,000  Level Kansas City Center
Mon 10:38:45 AM 38.7044 -88.8842 234° Southwest 432 497 40,000  Level Kansas City Center
Mon 10:39:46 AM 38.6333 -89.0097 234° Southwest 433 498 40,000  Level Kansas City Center
Mon 10:40:50 AM 38.5439 -89.1656 234° Southwest 438 504 40,000  Level Kansas City Center
Mon 10:41:51 AM 38.4719 -89.2908 234° Southwest 438 504 40,000  Level Kansas City Center
Mon 10:42:52 AM 38.4025 -89.4117 234° Southwest 438 504 40,000  Level Kansas City Center
Mon 10:43:54 AM 38.3306 -89.5369 234° Southwest 437 503 40,000  Level Kansas City Center
Mon 10:44:58 AM 38.2583 -89.6606 233° Southwest 435 501 40,000  Level Kansas City Center
Mon 10:45:59 AM 38.1864 -89.7842 234° Southwest 434 499 40,000  Level Kansas City Center
Mon 10:47:00 AM 38.1003 -89.9314 233° Southwest 436 502 40,000  Level Kansas City Center
Mon 10:48:04 AM 38.0269 -90.0572 234° Southwest 435 501 40,000  Level Kansas City Center
Mon 10:49:04 AM 37.9539 -90.1800 233° Southwest 435 501 40,000  Level Kansas City Center
Mon 10:50:08 AM 37.8819 -90.3033 234° Southwest 435 501 40,000  Level Kansas City Center
Mon 10:51:08 AM 37.8075 -90.4244 232° Southwest 435 501 40,000  Level Kansas City Center
Mon 10:52:13 AM 37.7356 -90.5478 234° Southwest 436 502 40,000  Level Kansas City Center
Mon 10:53:14 AM 37.6636 -90.6672 233° Southwest 431 496 40,000  Level Kansas City Center
Mon 10:54:14 AM 37.5867 -90.7950 233° Southwest 429 494 40,000  Level Kansas City Center
Mon 10:55:18 AM 37.5006 -90.9389 233° Southwest 427 491 40,000  Level Kansas City Center
Mon 10:56:19 AM 37.4272 -91.0581 232° Southwest 427 491 40,000  Level Kansas City Center
Mon 10:57:23 AM 37.3561 -91.1783 233° Southwest 427 491 40,000  Level Kansas City Center
Mon 10:58:23 AM 37.2842 -91.2964 233° Southwest 425 489 40,000  Level Kansas City Center
Mon 10:59:26 AM 37.2122 -91.4153 233° Southwest 425 489 40,000  Level Kansas City Center
Mon 11:00:27 AM 37.1400 -91.5325 232° Southwest 422 486 40,000  Level Kansas City Center
Mon 11:01:28 AM 37.0697 -91.6475 233° Southwest 417 480 40,000  Level Kansas City Center
Mon 11:02:32 AM 37.0008 -91.7600 233° Southwest 409 471 40,000  Level Kansas City Center
Mon 11:03:33 AM 36.9150 -91.8992 232° Southwest 416 479 40,000  Level Kansas City Center
Mon 11:04:36 AM 36.8461 -92.0114 233° Southwest 408 470 40,000  Level Kansas City Center
Mon 11:05:37 AM 36.7767 -92.1253 233° Southwest 409 471 40,000  Level Kansas City Center
Mon 11:06:39 AM 36.7058 -92.2364 232° Southwest 408 470 40,000  Level Kansas City Center
Mon 11:07:40 AM 36.6364 -92.3489 232° Southwest 407 468 40,000  Level Kansas City Center
Mon 11:08:38 AM 36.5661 -92.4564 231° Southwest 409 471 40,000  Level Memphis Center
Mon 11:09:40 AM 36.4956 -92.5678 232° Southwest 409 471 40,000  Level Memphis Center
Mon 11:10:42 AM 36.4300 -92.6683 231° Southwest 405 466 40,000  Level Memphis Center
Mon 11:11:45 AM 36.3464 -92.8003 232° Southwest 406 467 40,000  Level Memphis Center
Mon 11:12:47 AM 36.2772 -92.9117 232° Southwest 408 470 40,000  Level Memphis Center
Mon 11:13:49 AM 36.2058 -93.0194 231° Southwest 407 468 40,000  Level Memphis Center
Mon 11:14:51 AM 36.1358 -93.1292 232° Southwest 410 472 40,000  Level Memphis Center
Mon 11:15:53 AM 36.0653 -93.2383 231° Southwest 410 472 40,000  Level Memphis Center
Mon 11:16:55 AM 35.9800 -93.3703 231° Southwest 411 473 40,000  Level Memphis Center
Mon 11:17:57 AM 35.9097 -93.4797 232° Southwest 410 472 40,000  Level Memphis Center
Mon 11:18:59 AM 35.8381 -93.5881 231° Southwest 410 472 40,000  Level Memphis Center
Mon 11:20:01 AM 35.7678 -93.6967 231° Southwest 409 471 40,000  Level Memphis Center
Mon 11:21:03 AM 35.6964 -93.8058 231° Southwest 412 474 40,000  Level Memphis Center
Mon 11:22:05 AM 35.6100 -93.9361 231° Southwest 411 473 40,000  Level Memphis Center
Mon 11:23:07 AM 35.5381 -94.0439 231° Southwest 411 473 40,000  Level Memphis Center
Mon 11:24:09 AM 35.4661 -94.1531 231° Southwest 412 474 40,000  Level Memphis Center
Mon 11:25:11 AM 35.3950 -94.2603 231° Southwest 410 472 40,000  Level Memphis Center
Mon 11:26:13 AM 35.3081 -94.3575 222° Southwest 419 482 40,000  Level Memphis Center
Mon 11:27:15 AM 35.2019 -94.4733 222° Southwest 426 490 40,000  Level Memphis Center
Mon 11:28:17 AM 35.1136 -94.5694 222° Southwest 427 491 40,000  Level Memphis Center
Mon 11:28:56 AM 35.0592 -94.6275 221° Southwest 422 486 40,000  Level Fort Worth Center
Mon 11:29:58 AM 34.9706 -94.7228 221° Southwest 424 488 40,000  Level Fort Worth Center
Mon 11:31:00 AM 34.8822 -94.8178 221° Southwest 422 486 40,000  Level Fort Worth Center
Mon 11:32:03 AM 34.7964 -94.9114 222° Southwest 419 482 40,000  Level Fort Worth Center
Mon 11:33:05 AM 34.7094 -95.0047 221° Southwest 418 481 40,000  Level Fort Worth Center
Mon 11:34:07 AM 34.6003 -95.1219 221° Southwest 432 497 40,000 -435 Level Fort Worth Center
Mon 11:35:09 AM 34.5108 -95.2178 221° Southwest 430 495 39,100 -1,548 Descending Fort Worth Center
Mon 11:36:11 AM 34.4219 -95.3103 221° Southwest 425 489 36,800 -2,274 Descending Fort Worth Center
Mon 11:37:13 AM 34.3278 -95.4111 221° Southwest 445 512 34,400 -2,226 Descending Fort Worth Center
Mon 11:38:15 AM 34.2367 -95.5081 221° Southwest 441 507 32,200 -2,323 Descending Fort Worth Center
Mon 11:39:17 AM 34.1367 -95.6119 221° Southwest 429 494 29,600 -2,352 Descending Fort Worth Center
Mon 11:40:20 AM 34.0481 -95.7058 221° Southwest 439 505 27,300 -2,400 Descending Fort Worth Center
Mon 11:41:22 AM 33.9408 -95.8175 221° Southwest 428 493 24,600 -2,419 Descending Fort Worth Center
Mon 11:42:24 AM 33.8456 -95.8972 215° Southwest 417 480 22,300 -2,323 Descending Fort Worth Center
Mon 11:43:26 AM 33.7431 -95.9736 212° Southwest 414 476 19,800 -2,323 Descending Fort Worth Center
Mon 11:44:28 AM 33.6467 -96.0458 212° Southwest 381 438 17,500 -2,081 Descending Fort Worth Center
Mon 11:45:30 AM 33.5617 -96.1103 212° Southwest 365 420 15,500 -1,887 Descending Fort Worth Center
Mon 11:46:32 AM 33.4719 -96.1761 211° Southwest 351 404 13,600 -1,694 Descending Fort Worth Center
Mon 11:47:34 AM 33.3944 -96.2344 212° Southwest 332 382 12,000 -1,694 Descending Fort Worth Center
Mon 11:48:36 AM 33.3147 -96.2939 212° Southwest 313 360 10,100 -1,440 Descending Fort Worth Center
Mon 11:49:39 AM 33.2533 -96.3467 216° Southwest 276 318 9,000 -1,085 Descending Fort Worth Center
Mon 11:50:10 AM 33.2333 -96.3833 237° Southwest 277 319 8,400 -1,385 Descending Dallas / Fort Worth TRACON
Mon 11:51:10 AM 33.1833 -96.4667 234° Southwest 274 315 6,900 -1,500 Descending Dallas / Fort Worth TRACON
Mon 11:52:10 AM 33.1500 -96.5333 239° Southwest 279 321 5,400 -1,516 Descending Dallas / Fort Worth TRACON
Mon 11:52:45 AM 33.1211 -96.5858 237° Southwest 269 310 4,500 -866 Descending Fort Worth Center
Mon 11:53:47 AM 33.0872 -96.6553 240° Southwest 246 283 4,000 -242 Descending Fort Worth Center
Mon 11:54:49 AM 33.0497 -96.7333 240° Southwest 253 291 4,000 -145 Level Fort Worth Center
Mon 11:55:51 AM 33.0150 -96.8058 240° Southwest 253 291 3,700 -484 Descending Fort Worth Center
Mon 11:56:53 AM 32.9803 -96.8772 240° Southwest 234 269 3,000 -432 Descending Fort Worth Center
Mon 11:57:56 AM 32.9381 -96.9097 213° Southwest 187 215 2,800 -528 Descending Fort Worth Center
Mon 11:58:58 AM 32.8958 -96.9022 172° South 151 174 1,900 -871 Descending Fort Worth Center
Mon 12:00:00 PM 32.8697 -96.8725 136° Southeast 128 147 1,000 -629 Descending Fort Worth Center
Mon 12:01:02 PM 32.8486 -96.8458 133° Southeast 123 142 600 -387 Descending Fort Worth Center

Login

Don't have an account? Register now (free) for customized features, flight alerts, and more!